createdAt,value
2022-10-06T00:00:06.090Z,97.18
2022-10-06T00:01:06.153Z,96.67
2022-10-06T00:02:06.060Z,96.67
2022-10-06T00:03:06.045Z,96.67
2022-10-06T00:04:06.027Z,96.57
2022-10-06T00:05:06.009Z,96.17
2022-10-06T00:06:06.031Z,96.27
2022-10-06T00:07:05.999Z,96.17
2022-10-06T00:08:10.002Z,96.88
2022-10-06T00:09:05.959Z,95.71
2022-10-06T00:10:05.959Z,95.81
2022-10-06T00:11:05.939Z,95.40
2022-10-06T00:12:05.958Z,95.30
2022-10-06T00:13:05.919Z,95.61
2022-10-06T00:14:05.911Z,94.19
2022-10-06T00:15:05.899Z,95.20
2022-10-06T00:16:05.938Z,94.79
2022-10-06T00:17:05.870Z,95.30
2022-10-06T00:18:05.902Z,93.58
2022-10-06T00:19:06.249Z,94.70
2022-10-06T00:20:05.851Z,94.09
2022-10-06T00:21:05.834Z,93.78
2022-10-06T00:22:05.821Z,94.59
2022-10-06T00:23:05.811Z,94.90
2022-10-06T00:24:05.831Z,93.73
2022-10-06T00:25:05.788Z,94.34
2022-10-06T00:26:05.779Z,93.52
2022-10-06T00:27:05.773Z,93.12
2022-10-06T00:28:05.819Z,93.42
2022-10-06T00:29:05.740Z,92.82
2022-10-06T00:30:05.750Z,92.51
2022-10-06T00:31:05.761Z,90.89
2022-10-06T00:32:05.729Z,91.50
2022-10-06T00:33:05.690Z,92.36
2022-10-06T00:34:05.690Z,92.77
2022-10-06T00:35:05.691Z,92.51
2022-10-06T00:36:05.660Z,92.67
2022-10-06T00:37:05.651Z,92.61
2022-10-06T00:38:05.650Z,93.58
2022-10-06T00:39:05.629Z,94.09
2022-10-06T00:40:05.622Z,93.32
2022-10-06T00:41:05.621Z,92.61
2022-10-06T00:42:05.599Z,92.61
2022-10-06T00:43:05.581Z,90.79
2022-10-06T00:44:05.579Z,89.57
2022-10-06T00:45:05.562Z,90.28
2022-10-06T00:46:05.605Z,91.05
2022-10-06T00:47:05.541Z,91.60
2022-10-06T00:48:05.532Z,91.80
2022-10-06T00:49:05.522Z,90.58
2022-10-06T00:50:05.510Z,90.24
2022-10-06T00:51:05.492Z,91.35
2022-10-06T00:52:05.511Z,91.66
2022-10-06T00:53:05.471Z,92.57
2022-10-06T00:54:05.480Z,92.97
2022-10-06T00:55:05.451Z,92.77
2022-10-06T00:56:05.442Z,93.48
2022-10-06T00:57:05.423Z,93.38
2022-10-06T00:58:05.441Z,92.36
2022-10-06T00:59:05.410Z,91.86
2022-10-06T01:00:05.400Z,91.71
2022-10-06T01:01:05.428Z,92.02
2022-10-06T01:02:05.379Z,92.93
2022-10-06T01:03:05.413Z,92.42
2022-10-06T01:04:05.374Z,92.63
2022-10-06T01:05:05.332Z,93.39
2022-10-06T01:06:05.332Z,93.29
2022-10-06T01:07:05.315Z,94.10
2022-10-06T01:08:05.302Z,93.29
2022-10-06T01:09:05.292Z,93.90
2022-10-06T01:10:05.311Z,94.10
2022-10-06T01:11:05.272Z,93.49
2022-10-06T01:12:05.264Z,93.19
2022-10-06T01:13:05.253Z,94.00
2022-10-06T01:14:05.242Z,94.40
2022-10-06T01:15:05.231Z,94.26
2022-10-06T01:16:05.283Z,95.27
2022-10-06T01:17:05.203Z,94.56
2022-10-06T01:18:05.193Z,95.78
2022-10-06T01:19:05.183Z,95.78
2022-10-06T01:20:05.260Z,96.13
2022-10-06T01:21:05.162Z,96.74
2022-10-06T01:22:05.175Z,96.44
2022-10-06T01:23:05.192Z,96.34
2022-10-06T01:24:05.135Z,96.44
2022-10-06T01:25:05.113Z,96.44
2022-10-06T01:26:05.104Z,96.84
2022-10-06T01:27:05.093Z,96.74
2022-10-06T01:28:05.171Z,97.05
2022-10-06T01:29:05.077Z,96.23
2022-10-06T01:30:05.063Z,96.03
2022-10-06T01:31:05.087Z,96.34
2022-10-06T01:32:05.033Z,97.05
2022-10-06T01:33:05.025Z,96.94
2022-10-06T01:34:05.044Z,97.25
2022-10-06T01:35:04.994Z,97.14
2022-10-06T01:36:04.994Z,97.14
2022-10-06T01:37:04.974Z,97.80
2022-10-06T01:38:04.972Z,98.51
2022-10-06T01:39:04.955Z,99.42
2022-10-06T01:40:05.054Z,98.41
2022-10-06T01:41:04.933Z,96.95
2022-10-06T01:42:04.924Z,94.28
2022-10-06T01:43:04.915Z,91.25
2022-10-06T01:44:04.903Z,90.20
2022-10-06T01:45:04.886Z,88.59
2022-10-06T01:46:04.978Z,87.94
2022-10-06T01:47:04.864Z,87.63
2022-10-06T01:48:04.855Z,87.43
2022-10-06T01:49:04.844Z,86.93
2022-10-06T01:50:04.903Z,86.53
2022-10-06T01:51:04.823Z,85.62
2022-10-06T01:52:04.827Z,85.62
2022-10-06T01:53:04.796Z,85.22
2022-10-06T01:54:04.785Z,84.41
2022-10-06T01:55:04.773Z,84.35
2022-10-06T01:56:04.780Z,84.35
2022-10-06T01:57:04.781Z,84.15
2022-10-06T01:58:04.743Z,84.55
2022-10-06T01:59:04.727Z,84.45
2022-10-06T02:00:04.734Z,84.05
2022-10-06T02:01:04.705Z,84.45
2022-10-06T02:02:04.745Z,84.75
2022-10-06T02:03:04.696Z,84.75
2022-10-06T02:04:04.715Z,85.05
2022-10-06T02:05:04.656Z,84.85
2022-10-06T02:06:04.669Z,85.60
2022-10-06T02:07:04.637Z,85.90
2022-10-06T02:08:04.646Z,85.90
2022-10-06T02:09:04.615Z,85.90
2022-10-06T02:10:04.609Z,85.50
2022-10-06T02:11:04.588Z,85.84
2022-10-06T02:12:04.577Z,85.70
2022-10-06T02:13:04.567Z,86.10
2022-10-06T02:14:04.590Z,86.15
2022-10-06T02:15:04.537Z,86.65
2022-10-06T02:16:04.610Z,86.65
2022-10-06T02:17:04.518Z,87.05
2022-10-06T02:18:04.517Z,86.85
2022-10-06T02:19:04.497Z,87.05
2022-10-06T02:20:04.512Z,87.46
2022-10-06T02:21:04.478Z,87.15
2022-10-06T02:22:04.468Z,87.46
2022-10-06T02:23:04.449Z,88.51
2022-10-06T02:24:04.447Z,88.41
2022-10-06T02:25:04.430Z,88.77
2022-10-06T02:26:04.446Z,88.47
2022-10-06T02:27:04.408Z,88.67
2022-10-06T02:28:04.428Z,89.17
2022-10-06T02:29:04.379Z,89.28
2022-10-06T02:30:04.378Z,89.17
2022-10-06T02:31:04.447Z,89.58
2022-10-06T02:32:04.394Z,89.78
2022-10-06T02:33:04.338Z,89.62
2022-10-06T02:34:04.328Z,90.08
2022-10-06T02:35:04.318Z,89.78
2022-10-06T02:36:04.308Z,89.78
2022-10-06T02:37:04.305Z,90.19
2022-10-06T02:38:04.320Z,90.33
2022-10-06T02:39:04.279Z,90.59
2022-10-06T02:40:04.259Z,90.53
2022-10-06T02:41:04.250Z,90.94
2022-10-06T02:42:04.239Z,91.54
2022-10-06T02:43:04.229Z,91.44
2022-10-06T02:44:04.243Z,91.34
2022-10-06T02:45:04.201Z,91.74
2022-10-06T02:46:04.215Z,91.74
2022-10-06T02:47:04.179Z,91.74
2022-10-06T02:48:04.171Z,91.64
2022-10-06T02:49:04.158Z,91.30
2022-10-06T02:50:04.170Z,91.34
2022-10-06T02:51:04.138Z,91.24
2022-10-06T02:52:04.121Z,91.44
2022-10-06T02:53:04.110Z,91.94
2022-10-06T02:54:04.100Z,92.05
2022-10-06T02:55:04.089Z,92.45
2022-10-06T02:56:04.101Z,92.25
2022-10-06T02:57:04.062Z,92.65
2022-10-06T02:58:04.060Z,93.16
2022-10-06T02:59:04.040Z,93.66
2022-10-06T03:00:04.032Z,93.87
2022-10-06T03:01:04.023Z,94.47
2022-10-06T03:02:04.067Z,94.78
2022-10-06T03:03:04.063Z,95.07
2022-10-06T03:04:03.991Z,95.63
2022-10-06T03:05:03.971Z,96.09
2022-10-06T03:06:03.968Z,95.98
2022-10-06T03:07:04.008Z,96.13
2022-10-06T03:08:03.961Z,96.44
2022-10-06T03:09:03.932Z,96.54
2022-10-06T03:10:03.921Z,96.29
2022-10-06T03:11:03.902Z,96.39
2022-10-06T03:12:03.899Z,96.44
2022-10-06T03:13:03.881Z,96.39
2022-10-06T03:14:03.894Z,96.29
2022-10-06T03:15:03.863Z,96.19
2022-10-06T03:16:03.894Z,96.23
2022-10-06T03:17:03.839Z,96.34
2022-10-06T03:18:03.829Z,96.23
2022-10-06T03:19:03.835Z,96.34
2022-10-06T03:20:03.806Z,96.44
2022-10-06T03:21:03.791Z,96.44
2022-10-06T03:22:03.783Z,96.34
2022-10-06T03:23:03.775Z,96.23
2022-10-06T03:25:00.220Z,95.83
2022-10-06T03:26:00.196Z,95.93
2022-10-06T03:27:00.175Z,95.93
2022-10-06T03:28:00.207Z,95.93
2022-10-06T03:29:00.147Z,96.13
2022-10-06T03:30:00.183Z,96.03
2022-10-06T03:31:00.176Z,95.83
2022-10-06T03:32:00.107Z,95.73
2022-10-06T03:33:00.116Z,95.32
2022-10-06T03:34:00.091Z,95.22
2022-10-06T03:35:00.115Z,95.12
2022-10-06T03:36:00.082Z,95.02
2022-10-06T03:37:00.049Z,95.02
2022-10-06T03:38:00.035Z,94.92
2022-10-06T03:39:00.032Z,94.92
2022-10-06T03:40:00.006Z,95.02
2022-10-06T03:41:00.025Z,95.22
2022-10-06T03:41:59.987Z,95.47
2022-10-06T03:42:59.985Z,95.57
2022-10-06T03:43:59.969Z,95.07
2022-10-06T03:44:59.957Z,94.86
2022-10-06T03:45:59.948Z,94.51
2022-10-06T03:47:00.029Z,94.36
2022-10-06T03:47:59.916Z,94.82
2022-10-06T03:48:59.915Z,94.92
2022-10-06T03:49:59.897Z,94.82
2022-10-06T03:50:59.894Z,94.72
2022-10-06T03:51:59.878Z,94.82
2022-10-06T03:52:59.888Z,94.96
2022-10-06T03:53:59.859Z,95.07
2022-10-06T03:54:59.847Z,95.37
2022-10-06T03:55:59.827Z,96.28
2022-10-06T03:56:59.827Z,96.28
2022-10-06T03:57:59.848Z,96.38
2022-10-06T03:58:59.798Z,96.58
2022-10-06T03:59:59.801Z,96.89
2022-10-06T04:00:59.812Z,97.09
2022-10-06T04:01:59.782Z,96.98
2022-10-06T04:02:59.756Z,96.98
2022-10-06T04:03:59.759Z,97.09
2022-10-06T04:04:59.727Z,96.98
2022-10-06T04:05:59.717Z,97.19
2022-10-06T04:06:59.706Z,97.19
2022-10-06T04:07:59.690Z,97.19
2022-10-06T04:08:59.686Z,97.19
2022-10-06T04:09:59.689Z,97.09
2022-10-06T04:10:59.658Z,97.24
2022-10-06T04:11:59.647Z,97.19
2022-10-06T04:12:59.637Z,97.09
2022-10-06T04:13:59.619Z,97.19
2022-10-06T04:15:00.346Z,97.39
2022-10-06T04:15:59.660Z,97.34
2022-10-06T04:16:59.591Z,97.34
2022-10-06T04:17:59.579Z,97.34
2022-10-06T04:18:59.566Z,97.24
2022-10-06T04:19:59.558Z,97.44
2022-10-06T04:20:59.540Z,97.34
2022-10-06T04:21:59.561Z,97.24
2022-10-06T04:22:59.518Z,97.03
2022-10-06T04:23:59.519Z,96.93
2022-10-06T04:24:59.501Z,96.73
2022-10-06T04:25:59.489Z,96.63
2022-10-06T04:26:59.471Z,96.73
2022-10-06T04:27:59.503Z,96.53
2022-10-06T04:28:59.450Z,96.93
2022-10-06T04:29:59.439Z,96.88
2022-10-06T04:30:59.429Z,97.08
2022-10-06T04:31:59.485Z,97.49
2022-10-06T04:32:59.399Z,97.49
2022-10-06T04:33:59.418Z,97.38
2022-10-06T04:34:59.380Z,97.43
2022-10-06T04:35:59.370Z,97.63
2022-10-06T04:36:59.359Z,97.94
2022-10-06T04:37:59.351Z,98.03
2022-10-06T04:38:59.331Z,98.28
2022-10-06T04:39:59.341Z,98.49
2022-10-06T04:40:59.311Z,98.49
2022-10-06T04:41:59.300Z,98.59
2022-10-06T04:42:59.290Z,98.63
2022-10-06T04:43:59.281Z,98.94
2022-10-06T04:44:59.289Z,98.94
2022-10-06T04:45:59.317Z,98.94
2022-10-06T04:46:59.259Z,98.94
2022-10-06T04:47:59.240Z,99.04
2022-10-06T04:48:59.221Z,99.19
2022-10-06T04:49:59.211Z,99.29
2022-10-06T04:50:59.222Z,99.39
2022-10-06T04:51:59.194Z,99.44
2022-10-06T04:52:59.181Z,99.64
2022-10-06T04:53:59.174Z,99.54
2022-10-06T04:54:59.192Z,99.54
2022-10-06T04:55:59.141Z,99.64
2022-10-06T04:56:59.153Z,99.64
2022-10-06T04:57:59.121Z,99.64
2022-10-06T04:58:59.102Z,99.58
2022-10-06T05:00:02.866Z,99.49
2022-10-06T05:01:00.158Z,99.49
2022-10-06T05:01:59.141Z,99.58
2022-10-06T05:02:59.122Z,99.58
2022-10-06T05:03:59.053Z,99.58
2022-10-06T05:04:59.032Z,99.43
2022-10-06T05:05:59.032Z,99.74
2022-10-06T05:06:59.012Z,99.33
2022-10-06T05:07:59.002Z,99.07
2022-10-06T05:08:59.011Z,98.77
2022-10-06T05:09:58.982Z,98.36
2022-10-06T05:10:58.972Z,98.56
2022-10-06T05:11:58.971Z,98.86
2022-10-06T05:12:58.948Z,98.30
2022-10-06T05:13:58.942Z,98.91
2022-10-06T05:14:58.951Z,98.71
2022-10-06T05:15:58.948Z,98.81
2022-10-06T05:16:58.902Z,98.41
2022-10-06T05:17:59.035Z,98.14
2022-10-06T05:18:58.883Z,98.14
2022-10-06T05:19:58.872Z,97.23
2022-10-06T05:21:01.087Z,97.94
2022-10-06T05:21:59.861Z,97.23
2022-10-06T05:22:58.834Z,96.83
2022-10-06T05:23:58.822Z,96.11
2022-10-06T05:24:58.803Z,95.04
2022-10-06T05:25:58.800Z,95.65
2022-10-06T05:27:01.764Z,96.01
2022-10-06T05:27:58.816Z,96.22
2022-10-06T05:28:58.770Z,96.83
2022-10-06T05:29:58.758Z,97.23
2022-10-06T05:30:58.757Z,97.13
2022-10-06T05:31:58.811Z,98.25
2022-10-06T05:32:58.713Z,99.11
2022-10-06T05:33:58.714Z,99.83
2022-10-06T05:34:58.693Z,99.99
2022-10-06T05:35:58.684Z,99.99
2022-10-06T05:36:58.673Z,99.99
2022-10-06T05:37:58.683Z,99.99
2022-10-06T05:38:58.645Z,99.88
2022-10-06T05:39:58.642Z,99.53
2022-10-06T05:40:58.625Z,99.13
2022-10-06T05:41:58.622Z,98.72
2022-10-06T05:42:58.623Z,98.21
2022-10-06T05:43:58.593Z,98.01
2022-10-06T05:44:58.574Z,97.60
2022-10-06T05:45:58.591Z,97.60
2022-10-06T05:46:58.553Z,97.40
2022-10-06T05:47:58.544Z,96.69
2022-10-06T05:48:58.558Z,96.48
2022-10-06T05:49:58.524Z,96.38
2022-10-06T05:50:58.511Z,96.08
2022-10-06T05:51:58.506Z,95.78
2022-10-06T05:52:58.485Z,95.87
2022-10-06T05:53:58.481Z,95.47
2022-10-06T05:54:58.503Z,95.67
2022-10-06T05:55:58.453Z,95.67
2022-10-06T05:56:58.443Z,95.26
2022-10-06T05:57:58.433Z,94.96
2022-10-06T05:58:58.423Z,95.06
2022-10-06T05:59:58.463Z,94.86
2022-10-06T06:00:58.414Z,94.86
2022-10-06T06:01:58.475Z,95.06
2022-10-06T06:02:58.435Z,94.96
2022-10-06T06:03:58.364Z,95.26
2022-10-06T06:04:58.344Z,95.37
2022-10-06T06:05:58.341Z,95.57
2022-10-06T06:06:58.394Z,95.26
2022-10-06T06:07:58.315Z,95.41
2022-10-06T06:08:58.304Z,95.41
2022-10-06T06:09:58.294Z,95.51
2022-10-06T06:10:58.274Z,95.82
2022-10-06T06:11:58.323Z,95.92
2022-10-06T06:12:58.264Z,96.43
2022-10-06T06:13:58.252Z,96.83
2022-10-06T06:14:58.235Z,96.94
2022-10-06T06:15:58.224Z,96.98
2022-10-06T06:16:58.282Z,96.94
2022-10-06T06:17:58.225Z,96.53
2022-10-06T06:18:58.184Z,96.02
2022-10-06T06:19:58.215Z,96.23
2022-10-06T06:20:58.166Z,95.72
2022-10-06T06:21:58.162Z,95.57
2022-10-06T06:22:58.165Z,94.66
2022-10-06T06:23:58.135Z,94.56
2022-10-06T06:24:58.123Z,93.95
2022-10-06T06:26:02.109Z,93.90
2022-10-06T06:26:58.103Z,93.09
2022-10-06T06:27:58.156Z,91.73
2022-10-06T06:28:58.098Z,91.32
2022-10-06T06:29:58.065Z,89.31
2022-10-06T06:30:58.088Z,86.55
2022-10-06T06:31:58.045Z,83.13
2022-10-06T06:32:58.026Z,78.88
2022-10-06T06:33:58.023Z,74.87
2022-10-06T06:34:58.025Z,72.27
2022-10-06T06:35:57.995Z,69.89
2022-10-06T06:37:01.195Z,67.71
2022-10-06T06:37:58.976Z,66.57
2022-10-06T06:38:57.958Z,65.84
2022-10-06T06:39:57.975Z,64.77
2022-10-06T06:40:57.941Z,63.53
2022-10-06T06:41:57.936Z,62.60
2022-10-06T06:42:57.917Z,61.04
2022-10-06T06:43:57.906Z,61.47
2022-10-06T06:44:57.896Z,61.54
2022-10-06T06:45:57.934Z,59.81
2022-10-06T06:46:57.875Z,59.18
2022-10-06T06:47:57.865Z,58.11
2022-10-06T06:48:57.855Z,58.20
2022-10-06T06:49:57.837Z,58.11
2022-10-06T06:50:57.827Z,59.16
2022-10-06T06:51:57.836Z,60.62
2022-10-06T06:52:57.798Z,61.35
2022-10-06T06:53:57.797Z,61.58
2022-10-06T06:54:57.780Z,62.92
2022-10-06T06:55:57.767Z,63.99
2022-10-06T06:56:57.757Z,64.69
2022-10-06T06:57:57.774Z,62.96
2022-10-06T06:58:57.736Z,60.85
2022-10-06T06:59:57.728Z,62.22
2022-10-06T07:00:57.744Z,63.05
2022-10-06T07:01:57.781Z,63.68
2022-10-06T07:02:57.688Z,65.02
2022-10-06T07:03:58.661Z,64.03
2022-10-06T07:04:57.670Z,62.26
2022-10-06T07:05:57.658Z,60.86
2022-10-06T07:06:57.661Z,59.41
2022-10-06T07:07:57.629Z,57.65
2022-10-06T07:08:57.620Z,55.55
2022-10-06T07:09:57.630Z,55.87
2022-10-06T07:10:57.599Z,55.94
2022-10-06T07:11:57.589Z,55.40
2022-10-06T07:12:57.578Z,53.79
2022-10-06T07:13:57.569Z,53.99
2022-10-06T07:14:57.551Z,53.24
2022-10-06T07:15:57.598Z,53.74
2022-10-06T07:16:57.534Z,54.77
2022-10-06T07:17:57.522Z,54.17
2022-10-06T07:18:57.500Z,54.44
2022-10-06T07:19:57.497Z,53.82
2022-10-06T07:20:57.499Z,53.19
2022-10-06T07:21:57.492Z,52.94
2022-10-06T07:22:57.463Z,52.32
2022-10-06T07:23:57.452Z,52.34
2022-10-06T07:24:57.432Z,51.92
2022-10-06T07:25:57.438Z,51.42
2022-10-06T07:26:57.435Z,51.97
2022-10-06T07:27:57.441Z,54.02
2022-10-06T07:28:57.394Z,54.10
2022-10-06T07:29:57.501Z,53.57
2022-10-06T07:30:57.422Z,52.12
2022-10-06T07:31:57.364Z,52.42
2022-10-06T07:32:57.372Z,50.82
2022-10-06T07:33:57.344Z,51.52
2022-10-06T07:34:57.357Z,51.02
2022-10-06T07:35:57.314Z,50.99
2022-10-06T07:36:57.302Z,50.67
2022-10-06T07:37:57.302Z,49.75
2022-10-06T07:38:57.303Z,49.05
2022-10-06T07:39:57.265Z,48.88
2022-10-06T07:41:19.001Z,50.65
2022-10-06T07:41:58.244Z,50.22
2022-10-06T07:42:57.233Z,49.50
2022-10-06T07:43:57.225Z,49.18
2022-10-06T07:44:57.225Z,49.72
2022-10-06T07:45:57.248Z,51.07
2022-10-06T07:46:57.186Z,50.92
2022-10-06T07:47:57.176Z,50.92
2022-10-06T07:48:57.156Z,50.27
2022-10-06T07:49:57.154Z,49.51
2022-10-06T07:50:57.157Z,48.16
2022-10-06T07:51:57.127Z,47.79
2022-10-06T07:52:57.133Z,49.35
2022-10-06T07:53:57.107Z,49.70
2022-10-06T07:54:57.112Z,51.45
2022-10-06T07:55:57.123Z,52.27
2022-10-06T07:56:57.069Z,52.37
2022-10-06T07:57:57.068Z,51.17
2022-10-06T07:58:57.050Z,50.77
2022-10-06T08:00:00.546Z,50.35
2022-10-06T08:00:58.040Z,49.80
2022-10-06T08:01:57.056Z,49.08
2022-10-06T08:02:57.077Z,48.83
2022-10-06T08:03:56.989Z,47.79
2022-10-06T08:04:57.027Z,47.17
2022-10-06T08:05:56.970Z,46.35
2022-10-06T08:06:56.970Z,45.45
2022-10-06T08:07:56.950Z,46.08
2022-10-06T08:08:56.931Z,45.67
2022-10-06T08:09:56.922Z,45.87
2022-10-06T08:10:58.327Z,46.17
2022-10-06T08:11:56.921Z,46.91
2022-10-06T08:12:56.891Z,47.19
2022-10-06T08:13:56.881Z,46.39
2022-10-06T08:14:57.265Z,45.87
2022-10-06T08:15:56.877Z,45.30
2022-10-06T08:16:56.842Z,46.00
2022-10-06T08:17:56.851Z,46.59
2022-10-06T08:18:56.814Z,46.09
2022-10-06T08:19:56.813Z,45.67
2022-10-06T08:20:56.795Z,45.37
2022-10-06T08:21:59.874Z,45.52
2022-10-06T08:22:57.801Z,47.14
2022-10-06T08:23:56.774Z,46.86
2022-10-06T08:25:05.774Z,47.26
2022-10-06T08:25:57.745Z,47.66
2022-10-06T08:26:56.732Z,47.56
2022-10-06T08:27:56.748Z,47.44
2022-10-06T08:28:56.725Z,46.24
2022-10-06T08:29:56.696Z,46.61
2022-10-06T08:30:56.727Z,46.09
2022-10-06T08:31:56.773Z,45.57
2022-10-06T08:32:56.665Z,44.96
2022-10-06T08:33:56.690Z,44.88
2022-10-06T08:34:57.208Z,45.78
2022-10-06T08:35:56.626Z,45.55
2022-10-06T08:37:18.681Z,45.23
2022-10-06T08:37:57.615Z,45.11
2022-10-06T08:38:56.597Z,44.74
2022-10-06T08:39:56.608Z,45.26
2022-10-06T08:40:56.578Z,44.74
2022-10-06T08:41:56.567Z,44.16
2022-10-06T08:42:56.559Z,44.66
2022-10-06T08:43:56.538Z,44.36
2022-10-06T08:44:56.811Z,45.10
2022-10-06T08:45:56.544Z,45.60
2022-10-06T08:46:56.525Z,45.20
2022-10-06T08:47:56.498Z,45.54
2022-10-06T08:48:56.488Z,46.96
2022-10-06T08:49:56.789Z,46.26
2022-10-06T08:50:56.468Z,47.45
2022-10-06T08:51:56.470Z,46.64
2022-10-06T08:52:56.449Z,46.42
2022-10-06T08:53:56.430Z,46.00
2022-10-06T08:54:56.430Z,44.88
2022-10-06T08:55:56.411Z,45.40
2022-10-06T08:56:56.422Z,45.30
2022-10-06T08:57:56.382Z,45.08
2022-10-06T08:58:56.373Z,44.96
2022-10-06T08:59:56.582Z,45.03
2022-10-06T09:00:56.380Z,43.62
2022-10-06T09:01:56.453Z,42.83
2022-10-06T09:02:56.353Z,42.15
2022-10-06T09:03:56.331Z,43.07
2022-10-06T09:04:56.313Z,43.37
2022-10-06T09:05:56.303Z,43.82
2022-10-06T09:06:56.292Z,44.80
2022-10-06T09:07:56.275Z,44.68
2022-10-06T09:08:56.284Z,44.36
2022-10-06T09:09:56.575Z,43.05
2022-10-06T09:10:56.245Z,43.41
2022-10-06T09:11:56.225Z,44.72
2022-10-06T09:12:56.224Z,45.17
2022-10-06T09:13:56.247Z,46.41
2022-10-06T09:14:56.196Z,47.42
2022-10-06T09:15:56.195Z,47.42
2022-10-06T09:16:56.177Z,47.75
2022-10-06T09:17:56.157Z,47.65
2022-10-06T09:19:08.164Z,48.05
2022-10-06T09:19:57.469Z,48.37
2022-10-06T09:20:56.127Z,48.79
2022-10-06T09:21:56.123Z,49.52
2022-10-06T09:22:56.107Z,49.82
2022-10-06T09:23:56.101Z,50.79
2022-10-06T09:25:03.159Z,50.07
2022-10-06T09:25:56.069Z,49.27
2022-10-06T09:26:56.069Z,48.90
2022-10-06T09:27:56.138Z,49.19
2022-10-06T09:28:56.041Z,48.99
2022-10-06T09:29:56.275Z,48.69
2022-10-06T09:30:56.066Z,49.09
2022-10-06T09:31:56.001Z,48.92
2022-10-06T09:32:55.999Z,49.54
2022-10-06T09:33:55.980Z,49.04
2022-10-06T09:34:55.971Z,49.74
2022-10-06T09:35:55.960Z,48.79
2022-10-06T09:37:00.247Z,49.51
2022-10-06T09:37:56.934Z,50.38
2022-10-06T09:38:55.929Z,52.51
2022-10-06T09:39:56.224Z,51.74
2022-10-06T09:40:55.901Z,52.24
2022-10-06T09:41:55.892Z,51.54
2022-10-06T09:42:55.902Z,52.01
2022-10-06T09:43:55.862Z,51.14
2022-10-06T09:44:55.861Z,51.97
2022-10-06T09:45:55.886Z,52.69
2022-10-06T09:46:55.832Z,52.59
2022-10-06T09:47:55.823Z,53.22
2022-10-06T09:48:55.901Z,54.33
2022-10-06T09:49:55.931Z,54.33
2022-10-06T09:50:55.790Z,54.10
2022-10-06T09:51:55.780Z,54.08
2022-10-06T09:52:55.763Z,53.57
2022-10-06T09:53:55.772Z,53.45
2022-10-06T09:54:55.743Z,52.74
2022-10-06T09:55:55.732Z,52.72
2022-10-06T09:56:55.723Z,53.42
2022-10-06T09:57:55.703Z,52.80
2022-10-06T09:58:55.696Z,53.20
2022-10-06T09:59:55.836Z,53.27
2022-10-06T10:00:55.759Z,53.77
2022-10-06T10:01:55.664Z,53.27
2022-10-06T10:02:55.681Z,53.07
2022-10-06T10:04:18.858Z,53.09
2022-10-06T10:04:56.653Z,53.90
2022-10-06T10:05:55.627Z,52.26
2022-10-06T10:06:55.604Z,52.57
2022-10-06T10:07:55.594Z,51.99
2022-10-06T10:08:55.586Z,53.00
2022-10-06T10:09:55.776Z,53.09
2022-10-06T10:10:55.584Z,52.37
2022-10-06T10:11:55.546Z,52.77
2022-10-06T10:12:55.535Z,51.06
2022-10-06T10:13:55.566Z,50.76
2022-10-06T10:14:55.518Z,51.74
2022-10-06T10:15:55.599Z,50.44
2022-10-06T10:16:55.509Z,50.86
2022-10-06T10:17:55.479Z,50.26
2022-10-06T10:18:55.474Z,50.94
2022-10-06T10:19:55.829Z,50.84
2022-10-06T10:20:55.448Z,50.54
2022-10-06T10:21:55.456Z,50.63
2022-10-06T10:22:55.428Z,50.44
2022-10-06T10:23:55.432Z,51.01
2022-10-06T10:24:55.397Z,50.81
2022-10-06T10:25:55.412Z,50.21
2022-10-06T10:26:55.387Z,51.12
2022-10-06T10:27:55.511Z,51.32
2022-10-06T10:28:55.358Z,51.12
2022-10-06T10:29:55.618Z,51.01
2022-10-06T10:30:55.388Z,51.14
2022-10-06T10:31:55.436Z,51.89
2022-10-06T10:32:55.342Z,53.50
2022-10-06T10:34:11.808Z,52.77
2022-10-06T10:34:56.569Z,51.97
2022-10-06T10:35:55.269Z,51.87
2022-10-06T10:36:55.267Z,51.17
2022-10-06T10:37:55.259Z,51.37
2022-10-06T10:38:55.282Z,51.46
2022-10-06T10:39:55.251Z,52.17
2022-10-06T10:40:55.219Z,50.81
2022-10-06T10:41:55.210Z,51.31
2022-10-06T10:42:55.199Z,51.31
2022-10-06T10:43:55.189Z,50.99
2022-10-06T10:44:55.441Z,50.18
2022-10-06T10:45:55.170Z,50.06
2022-10-06T10:46:55.226Z,49.78
2022-10-06T10:47:55.140Z,48.66
2022-10-06T10:48:55.129Z,48.93
2022-10-06T10:49:55.131Z,48.35
2022-10-06T10:50:55.121Z,48.78
2022-10-06T10:51:55.091Z,49.30
2022-10-06T10:52:55.222Z,51.01
2022-10-06T10:53:55.069Z,50.29
2022-10-06T10:54:55.222Z,48.96
2022-10-06T10:55:55.042Z,49.56
2022-10-06T10:56:55.061Z,49.74
2022-10-06T10:57:55.016Z,49.13
2022-10-06T10:58:55.014Z,48.83
2022-10-06T10:59:54.997Z,48.23
2022-10-06T11:00:55.060Z,49.23
2022-10-06T11:01:55.005Z,49.54
2022-10-06T11:02:55.027Z,49.81
2022-10-06T11:03:54.952Z,48.41
2022-10-06T11:04:55.030Z,48.51
2022-10-06T11:05:54.923Z,50.51
2022-10-06T11:06:54.917Z,49.93
2022-10-06T11:07:54.912Z,51.04
2022-10-06T11:08:54.917Z,51.37
2022-10-06T11:09:54.886Z,52.37
2022-10-06T11:10:54.865Z,51.37
2022-10-06T11:11:54.857Z,52.84
2022-10-06T11:12:54.844Z,50.42
2022-10-06T11:13:54.898Z,50.92
2022-10-06T11:14:54.878Z,50.01
2022-10-06T11:15:54.869Z,49.61
2022-10-06T11:16:54.939Z,49.31
2022-10-06T11:17:54.805Z,48.51
2022-10-06T11:18:54.775Z,47.81
2022-10-06T11:19:54.787Z,48.23
2022-10-06T11:20:54.755Z,48.83
2022-10-06T11:21:54.744Z,47.83
2022-10-06T11:22:54.735Z,47.73
2022-10-06T11:23:54.716Z,47.96
2022-10-06T11:24:54.741Z,49.26
2022-10-06T11:25:54.714Z,49.26
2022-10-06T11:26:54.687Z,49.46
2022-10-06T11:27:54.666Z,49.33
2022-10-06T11:28:54.661Z,49.23
2022-10-06T11:29:54.646Z,48.43
2022-10-06T11:30:54.636Z,48.03
2022-10-06T11:31:54.722Z,47.63
2022-10-06T11:32:54.618Z,47.83
2022-10-06T11:33:54.606Z,48.21
2022-10-06T11:34:54.692Z,48.61
2022-10-06T11:35:54.578Z,48.08
2022-10-06T11:36:54.589Z,46.98
2022-10-06T11:37:54.578Z,47.28
2022-10-06T11:38:54.547Z,47.38
2022-10-06T11:39:54.640Z,45.40
2022-10-06T11:40:54.527Z,47.00
2022-10-06T11:41:54.512Z,47.11
2022-10-06T11:42:54.498Z,48.11
2022-10-06T11:43:54.525Z,47.81
2022-10-06T11:44:54.486Z,47.20
2022-10-06T11:45:54.527Z,48.08
2022-10-06T11:46:54.459Z,46.78
2022-10-06T11:47:54.439Z,45.48
2022-10-06T11:48:54.430Z,45.88
2022-10-06T11:49:54.441Z,45.26
2022-10-06T11:50:54.408Z,43.68
2022-10-06T11:51:58.365Z,44.30
2022-10-06T11:52:55.395Z,45.30
2022-10-06T11:53:54.378Z,45.12
2022-10-06T11:54:54.367Z,46.03
2022-10-06T11:55:54.361Z,46.42
2022-10-06T11:56:54.340Z,47.53
2022-10-06T11:57:54.331Z,47.20
2022-10-06T11:58:54.360Z,46.11
2022-10-06T11:59:54.302Z,46.41
2022-10-06T12:00:54.330Z,46.91
2022-10-06T12:01:54.432Z,46.30
2022-10-06T12:02:54.430Z,45.30
2022-10-06T12:03:54.260Z,45.30
2022-10-06T12:04:54.249Z,46.03
2022-10-06T12:05:56.878Z,45.12
2022-10-06T12:06:54.242Z,45.12
2022-10-06T12:07:54.217Z,45.12
2022-10-06T12:08:54.215Z,46.93
2022-10-06T12:09:54.196Z,47.45
2022-10-06T12:10:54.183Z,47.23
2022-10-06T12:11:54.263Z,47.13
2022-10-06T12:13:06.781Z,46.15
2022-10-06T12:15:06.584Z,47.47
2022-10-06T12:17:09.299Z,47.55
2022-10-06T12:17:55.102Z,47.23
2022-10-06T12:18:54.092Z,46.50
2022-10-06T12:19:54.089Z,46.73
2022-10-06T12:20:54.063Z,46.55
2022-10-06T12:21:54.121Z,47.15
2022-10-06T12:22:54.062Z,46.73
2022-10-06T12:23:54.033Z,46.83
2022-10-06T12:24:54.022Z,47.61
2022-10-06T12:25:54.006Z,46.00
2022-10-06T12:26:53.996Z,46.41
2022-10-06T12:27:53.983Z,46.50
2022-10-06T12:28:53.994Z,45.90
2022-10-06T12:29:53.964Z,45.68
2022-10-06T12:30:54.013Z,45.38
2022-10-06T12:31:53.934Z,44.68
2022-10-06T12:32:53.927Z,44.58
2022-10-06T12:33:54.078Z,45.58
2022-10-06T12:34:53.922Z,45.18
2022-10-06T12:35:53.887Z,44.98
2022-10-06T12:36:53.883Z,45.28
2022-10-06T12:37:54.460Z,44.88
2022-10-06T12:38:53.855Z,46.18
2022-10-06T12:39:53.886Z,45.68
2022-10-06T12:40:53.834Z,45.78
2022-10-06T12:41:53.817Z,45.38
2022-10-06T12:42:53.806Z,44.28
2022-10-06T12:43:53.819Z,44.48
2022-10-06T12:44:53.794Z,45.30
2022-10-06T12:45:53.807Z,44.30
2022-10-06T12:46:53.770Z,45.28
2022-10-06T12:47:53.755Z,43.90
2022-10-06T12:48:53.737Z,43.80
2022-10-06T12:49:53.731Z,43.19
2022-10-06T12:50:53.739Z,43.19
2022-10-06T12:51:56.357Z,44.10
2022-10-06T12:52:54.687Z,43.40
2022-10-06T12:53:53.689Z,42.69
2022-10-06T12:54:53.667Z,43.08